sensor_id;sensor_type;location;lat;lon;timestamp;P1;durP1;ratioP1;P2;durP2;ratioP2
17636;SDS011;8937;51.236;6.794;2023-06-19T00:03:56;2.65;;;2.45;;
17636;SDS011;8937;51.236;6.794;2023-06-19T00:12:18;2.70;;;2.50;;
17636;SDS011;8937;51.236;6.794;2023-06-19T00:20:40;2.70;;;2.60;;
17636;SDS011;8937;51.236;6.794;2023-06-19T00:29:03;2.70;;;2.50;;
17636;SDS011;8937;51.236;6.794;2023-06-19T00:37:24;2.88;;;2.67;;
17636;SDS011;8937;51.236;6.794;2023-06-19T00:45:47;2.85;;;2.65;;
17636;SDS011;8937;51.236;6.794;2023-06-19T00:54:08;2.30;;;2.20;;
17636;SDS011;8937;51.236;6.794;2023-06-19T01:02:31;2.97;;;2.65;;
17636;SDS011;8937;51.236;6.794;2023-06-19T01:10:54;2.65;;;2.53;;
17636;SDS011;8937;51.236;6.794;2023-06-19T01:19:18;2.88;;;2.67;;
17636;SDS011;8937;51.236;6.794;2023-06-19T01:27:42;2.70;;;2.60;;
17636;SDS011;8937;51.236;6.794;2023-06-19T01:36:03;2.60;;;2.50;;
17636;SDS011;8937;51.236;6.794;2023-06-19T01:44:26;2.90;;;2.70;;
17636;SDS011;8937;51.236;6.794;2023-06-19T01:52:48;2.70;;;2.50;;
17636;SDS011;8937;51.236;6.794;2023-06-19T02:01:11;3.00;;;2.80;;
17636;SDS011;8937;51.236;6.794;2023-06-19T02:09:32;3.10;;;2.60;;
17636;SDS011;8937;51.236;6.794;2023-06-19T02:17:56;2.95;;;2.75;;
17636;SDS011;8937;51.236;6.794;2023-06-19T02:26:17;3.63;;;3.33;;
17636;SDS011;8937;51.236;6.794;2023-06-19T02:34:40;2.85;;;2.65;;
17636;SDS011;8937;51.236;6.794;2023-06-19T02:43:01;2.85;;;2.67;;
17636;SDS011;8937;51.236;6.794;2023-06-19T02:51:24;2.78;;;2.20;;
17636;SDS011;8937;51.236;6.794;2023-06-19T02:59:45;2.13;;;2.03;;
17636;SDS011;8937;51.236;6.794;2023-06-19T03:08:08;2.05;;;1.95;;
17636;SDS011;8937;51.236;6.794;2023-06-19T03:16:29;4.32;;;1.92;;
17636;SDS011;8937;51.236;6.794;2023-06-19T03:24:52;2.15;;;2.03;;
17636;SDS011;8937;51.236;6.794;2023-06-19T03:33:13;2.00;;;1.90;;
17636;SDS011;8937;51.236;6.794;2023-06-19T03:41:36;2.28;;;1.83;;
17636;SDS011;8937;51.236;6.794;2023-06-19T03:49:57;2.05;;;1.85;;
17636;SDS011;8937;51.236;6.794;2023-06-19T03:58:20;1.83;;;1.73;;
17636;SDS011;8937;51.236;6.794;2023-06-19T04:06:41;3.15;;;1.45;;
17636;SDS011;8937;51.236;6.794;2023-06-19T04:15:05;2.60;;;1.70;;
17636;SDS011;8937;51.236;6.794;2023-06-19T04:23:26;2.55;;;1.70;;
17636;SDS011;8937;51.236;6.794;2023-06-19T04:31:49;1.90;;;1.63;;
17636;SDS011;8937;51.236;6.794;2023-06-19T04:40:10;3.00;;;1.40;;
17636;SDS011;8937;51.236;6.794;2023-06-19T04:48:33;1.40;;;1.40;;
17636;SDS011;8937;51.236;6.794;2023-06-19T04:56:56;1.58;;;1.48;;
17636;SDS011;8937;51.236;6.794;2023-06-19T05:05:19;1.27;;;1.23;;
17636;SDS011;8937;51.236;6.794;2023-06-19T05:13:40;1.58;;;1.48;;
17636;SDS011;8937;51.236;6.794;2023-06-19T05:22:03;1.77;;;1.50;;
17636;SDS011;8937;51.236;6.794;2023-06-19T05:30:25;1.58;;;1.48;;
17636;SDS011;8937;51.236;6.794;2023-06-19T05:38:48;1.50;;;1.40;;
17636;SDS011;8937;51.236;6.794;2023-06-19T05:47:09;2.08;;;1.23;;
17636;SDS011;8937;51.236;6.794;2023-06-19T05:55:33;1.55;;;1.40;;
17636;SDS011;8937;51.236;6.794;2023-06-19T06:03:54;1.42;;;1.33;;
17636;SDS011;8937;51.236;6.794;2023-06-19T06:12:17;2.50;;;1.45;;
17636;SDS011;8937;51.236;6.794;2023-06-19T06:20:38;1.48;;;1.45;;
17636;SDS011;8937;51.236;6.794;2023-06-19T06:29:01;1.95;;;1.50;;
17636;SDS011;8937;51.236;6.794;2023-06-19T06:37:22;1.40;;;1.30;;
17636;SDS011;8937;51.236;6.794;2023-06-19T06:45:45;1.42;;;1.33;;
17636;SDS011;8937;51.236;6.794;2023-06-19T06:54:06;1.20;;;1.20;;
17636;SDS011;8937;51.236;6.794;2023-06-19T07:02:29;3.42;;;1.38;;
17636;SDS011;8937;51.236;6.794;2023-06-19T07:10:50;1.23;;;1.13;;
17636;SDS011;8937;51.236;6.794;2023-06-19T07:19:13;1.73;;;1.40;;
17636;SDS011;8937;51.236;6.794;2023-06-19T07:27:34;1.45;;;1.35;;
17636;SDS011;8937;51.236;6.794;2023-06-19T07:35:57;2.15;;;1.58;;
17636;SDS011;8937;51.236;6.794;2023-06-19T07:44:18;1.40;;;1.30;;
17636;SDS011;8937;51.236;6.794;2023-06-19T07:52:42;1.20;;;1.20;;
17636;SDS011;8937;51.236;6.794;2023-06-19T08:01:03;1.60;;;1.50;;
17636;SDS011;8937;51.236;6.794;2023-06-19T08:09:26;1.50;;;1.40;;
17636;SDS011;8937;51.236;6.794;2023-06-19T08:17:47;1.70;;;1.60;;
17636;SDS011;8937;51.236;6.794;2023-06-19T08:26:10;2.53;;;1.73;;
17636;SDS011;8937;51.236;6.794;2023-06-19T08:34:32;4.25;;;1.38;;
17636;SDS011;8937;51.236;6.794;2023-06-19T08:42:54;1.52;;;1.42;;
17636;SDS011;8937;51.236;6.794;2023-06-19T08:51:16;1.73;;;1.63;;
17636;SDS011;8937;51.236;6.794;2023-06-19T08:59:39;3.20;;;2.20;;
17636;SDS011;8937;51.236;6.794;2023-06-19T09:08:02;1.67;;;1.58;;
17636;SDS011;8937;51.236;6.794;2023-06-19T09:16:26;1.77;;;1.67;;
17636;SDS011;8937;51.236;6.794;2023-06-19T09:24:59;2.33;;;2.13;;
17636;SDS011;8937;51.236;6.794;2023-06-19T09:33:22;6.03;;;1.88;;
17636;SDS011;8937;51.236;6.794;2023-06-19T09:41:45;1.60;;;1.50;;
17636;SDS011;8937;51.236;6.794;2023-06-19T09:50:10;2.47;;;1.80;;
17636;SDS011;8937;51.236;6.794;2023-06-19T09:58:32;2.88;;;2.17;;
17636;SDS011;8937;51.236;6.794;2023-06-19T10:06:55;2.28;;;2.15;;
17636;SDS011;8937;51.236;6.794;2023-06-19T10:15:18;3.75;;;2.30;;
17636;SDS011;8937;51.236;6.794;2023-06-19T10:23:41;2.05;;;1.95;;
17636;SDS011;8937;51.236;6.794;2023-06-19T10:32:03;2.78;;;2.10;;
17636;SDS011;8937;51.236;6.794;2023-06-19T10:40:26;1.88;;;1.75;;
17636;SDS011;8937;51.236;6.794;2023-06-19T10:48:47;2.13;;;2.03;;
17636;SDS011;8937;51.236;6.794;2023-06-19T10:57:10;2.03;;;1.92;;
17636;SDS011;8937;51.236;6.794;2023-06-19T11:05:33;2.55;;;1.95;;
17636;SDS011;8937;51.236;6.794;2023-06-19T11:13:56;3.22;;;2.00;;
17636;SDS011;8937;51.236;6.794;2023-06-19T11:22:17;1.88;;;1.77;;
17636;SDS011;8937;51.236;6.794;2023-06-19T11:30:40;2.10;;;2.00;;
17636;SDS011;8937;51.236;6.794;2023-06-19T11:39:03;1.98;;;1.88;;
17636;SDS011;8937;51.236;6.794;2023-06-19T11:47:30;3.58;;;2.92;;
17636;SDS011;8937;51.236;6.794;2023-06-19T11:55:52;3.00;;;2.42;;
17636;SDS011;8937;51.236;6.794;2023-06-19T12:04:15;2.33;;;2.22;;
17636;SDS011;8937;51.236;6.794;2023-06-19T12:12:36;2.30;;;2.20;;
17636;SDS011;8937;51.236;6.794;2023-06-19T12:20:59;4.90;;;2.10;;
17636;SDS011;8937;51.236;6.794;2023-06-19T12:29:21;1.98;;;1.88;;
17636;SDS011;8937;51.236;6.794;2023-06-19T12:37:44;2.17;;;2.08;;
17636;SDS011;8937;51.236;6.794;2023-06-19T12:46:05;2.28;;;2.17;;
17636;SDS011;8937;51.236;6.794;2023-06-19T13:12:24;2.42;;;2.20;;
17636;SDS011;8937;51.236;6.794;2023-06-19T13:20:45;4.00;;;1.98;;
17636;SDS011;8937;51.236;6.794;2023-06-19T13:29:10;3.80;;;1.80;;
17636;SDS011;8937;51.236;6.794;2023-06-19T13:37:33;2.45;;;2.15;;
17636;SDS011;8937;51.236;6.794;2023-06-19T13:45:55;2.25;;;2.05;;
17636;SDS011;8937;51.236;6.794;2023-06-19T13:54:17;4.13;;;2.38;;
17636;SDS011;8937;51.236;6.794;2023-06-19T14:02:40;1.73;;;1.63;;
17636;SDS011;8937;51.236;6.794;2023-06-19T14:11:01;5.43;;;2.00;;
17636;SDS011;8937;51.236;6.794;2023-06-19T14:19:24;1.73;;;1.63;;
17636;SDS011;8937;51.236;6.794;2023-06-19T14:27:46;1.77;;;1.67;;
17636;SDS011;8937;51.236;6.794;2023-06-19T14:36:08;2.05;;;1.88;;
17636;SDS011;8937;51.236;6.794;2023-06-19T14:44:30;1.58;;;1.40;;
17636;SDS011;8937;51.236;6.794;2023-06-19T14:52:53;4.43;;;1.88;;
17636;SDS011;8937;51.236;6.794;2023-06-19T15:01:14;1.70;;;1.60;;
17636;SDS011;8937;51.236;6.794;2023-06-19T15:09:38;1.70;;;1.60;;
17636;SDS011;8937;51.236;6.794;2023-06-19T15:17:59;3.08;;;1.75;;
17636;SDS011;8937;51.236;6.794;2023-06-19T15:26:22;1.33;;;1.33;;
17636;SDS011;8937;51.236;6.794;2023-06-19T15:34:43;1.70;;;1.48;;
17636;SDS011;8937;51.236;6.794;2023-06-19T15:43:06;2.15;;;1.45;;
17636;SDS011;8937;51.236;6.794;2023-06-19T15:51:27;2.33;;;1.40;;
17636;SDS011;8937;51.236;6.794;2023-06-19T15:59:50;1.50;;;1.40;;
17636;SDS011;8937;51.236;6.794;2023-06-19T16:08:12;3.00;;;2.70;;
17636;SDS011;8937;51.236;6.794;2023-06-19T16:16:35;2.97;;;2.60;;
17636;SDS011;8937;51.236;6.794;2023-06-19T16:24:56;2.10;;;2.00;;
17636;SDS011;8937;51.236;6.794;2023-06-19T16:33:19;2.28;;;2.08;;
17636;SDS011;8937;51.236;6.794;2023-06-19T16:41:41;2.00;;;1.90;;
17636;SDS011;8937;51.236;6.794;2023-06-19T16:50:04;1.30;;;1.20;;
17636;SDS011;8937;51.236;6.794;2023-06-19T16:58:25;1.65;;;1.55;;
17636;SDS011;8937;51.236;6.794;2023-06-19T17:06:48;2.63;;;1.77;;
17636;SDS011;8937;51.236;6.794;2023-06-19T17:15:10;2.58;;;1.63;;
17636;SDS011;8937;51.236;6.794;2023-06-19T17:23:32;1.90;;;1.80;;
17636;SDS011;8937;51.236;6.794;2023-06-19T17:31:55;1.77;;;1.67;;
17636;SDS011;8937;51.236;6.794;2023-06-19T17:40:18;1.67;;;1.58;;
17636;SDS011;8937;51.236;6.794;2023-06-19T17:48:39;2.45;;;2.00;;
17636;SDS011;8937;51.236;6.794;2023-06-19T17:57:02;3.42;;;1.83;;
17636;SDS011;8937;51.236;6.794;2023-06-19T18:05:24;2.13;;;1.92;;
17636;SDS011;8937;51.236;6.794;2023-06-19T18:13:47;2.05;;;1.95;;
17636;SDS011;8937;51.236;6.794;2023-06-19T18:22:08;5.03;;;2.30;;
17636;SDS011;8937;51.236;6.794;2023-06-19T18:30:31;1.90;;;1.80;;
17636;SDS011;8937;51.236;6.794;2023-06-19T18:38:52;4.53;;;1.80;;
17636;SDS011;8937;51.236;6.794;2023-06-19T18:47:15;2.03;;;1.92;;
17636;SDS011;8937;51.236;6.794;2023-06-19T18:55:36;2.55;;;2.08;;
17636;SDS011;8937;51.236;6.794;2023-06-19T19:03:59;3.28;;;2.17;;
17636;SDS011;8937;51.236;6.794;2023-06-19T19:12:21;4.22;;;2.30;;
17636;SDS011;8937;51.236;6.794;2023-06-19T19:20:44;2.65;;;1.85;;
17636;SDS011;8937;51.236;6.794;2023-06-19T19:29:06;8.68;;;1.70;;
17636;SDS011;8937;51.236;6.794;2023-06-19T19:37:28;3.65;;;1.98;;
17636;SDS011;8937;51.236;6.794;2023-06-19T19:45:51;1.90;;;1.80;;
17636;SDS011;8937;51.236;6.794;2023-06-19T19:54:15;2.88;;;2.47;;
17636;SDS011;8937;51.236;6.794;2023-06-19T20:02:36;1.73;;;1.63;;
17636;SDS011;8937;51.236;6.794;2023-06-19T20:10:59;2.03;;;1.90;;
17636;SDS011;8937;51.236;6.794;2023-06-19T20:19:20;2.40;;;2.22;;
17636;SDS011;8937;51.236;6.794;2023-06-19T20:27:43;1.98;;;1.88;;
17636;SDS011;8937;51.236;6.794;2023-06-19T20:36:04;1.98;;;1.73;;
17636;SDS011;8937;51.236;6.794;2023-06-19T20:44:27;3.25;;;2.00;;
17636;SDS011;8937;51.236;6.794;2023-06-19T20:52:48;2.20;;;2.08;;
17636;SDS011;8937;51.236;6.794;2023-06-19T21:01:11;2.30;;;2.20;;
17636;SDS011;8937;51.236;6.794;2023-06-19T21:09:32;2.35;;;2.20;;
17636;SDS011;8937;51.236;6.794;2023-06-19T21:17:55;1.90;;;1.80;;
17636;SDS011;8937;51.236;6.794;2023-06-19T21:26:17;2.78;;;2.35;;
17636;SDS011;8937;51.236;6.794;2023-06-19T21:34:39;2.10;;;1.90;;
17636;SDS011;8937;51.236;6.794;2023-06-19T21:43:01;2.25;;;2.13;;
17636;SDS011;8937;51.236;6.794;2023-06-19T21:51:24;6.95;;;5.10;;
17636;SDS011;8937;51.236;6.794;2023-06-19T21:59:45;4.00;;;3.60;;
17636;SDS011;8937;51.236;6.794;2023-06-19T22:08:08;3.47;;;2.33;;
17636;SDS011;8937;51.236;6.794;2023-06-19T22:16:29;2.67;;;2.17;;
17636;SDS011;8937;51.236;6.794;2023-06-19T22:24:52;2.17;;;2.08;;
17636;SDS011;8937;51.236;6.794;2023-06-19T22:33:14;2.53;;;1.90;;
17636;SDS011;8937;51.236;6.794;2023-06-19T22:41:36;2.42;;;2.30;;
17636;SDS011;8937;51.236;6.794;2023-06-19T22:49:58;2.40;;;2.20;;
17636;SDS011;8937;51.236;6.794;2023-06-19T22:58:22;2.60;;;2.40;;
17636;SDS011;8937;51.236;6.794;2023-06-19T23:06:44;3.28;;;2.53;;
17636;SDS011;8937;51.236;6.794;2023-06-19T23:15:10;2.78;;;2.00;;
17636;SDS011;8937;51.236;6.794;2023-06-19T23:23:31;4.85;;;2.28;;
17636;SDS011;8937;51.236;6.794;2023-06-19T23:31:54;2.35;;;2.25;;
17636;SDS011;8937;51.236;6.794;2023-06-19T23:40:15;3.22;;;2.65;;
17636;SDS011;8937;51.236;6.794;2023-06-19T23:48:39;2.38;;;2.17;;
17636;SDS011;8937;51.236;6.794;2023-06-19T23:57:01;2.50;;;2.30;;
